createdAt,value
2019-03-06T00:00:17.590Z,2.40
2019-03-06T00:02:48.905Z,1.80
2019-03-06T00:05:20.144Z,1.80
2019-03-06T00:07:51.453Z,1.93
2019-03-06T00:10:29.332Z,1.90
2019-03-06T00:13:00.709Z,2.00
2019-03-06T00:15:32.007Z,2.00
2019-03-06T00:18:03.457Z,2.03
2019-03-06T00:20:34.761Z,1.97
2019-03-06T00:23:06.045Z,2.23
2019-03-06T00:25:37.325Z,2.00
2019-03-06T00:28:08.785Z,2.00
2019-03-06T00:30:40.102Z,2.40
2019-03-06T00:33:11.393Z,2.13
2019-03-06T00:35:45.609Z,2.10
2019-03-06T00:38:16.909Z,2.23
2019-03-06T00:40:53.244Z,2.03
2019-03-06T00:43:24.539Z,2.47
2019-03-06T00:45:55.810Z,2.23
2019-03-06T00:48:27.127Z,2.50
2019-03-06T00:50:58.452Z,2.30
2019-03-06T00:53:29.768Z,2.93
2019-03-06T00:56:01.054Z,2.30
2019-03-06T00:58:32.306Z,2.30
2019-03-06T01:01:03.596Z,2.70
2019-03-06T01:03:34.898Z,2.93
2019-03-06T01:06:06.294Z,2.50
2019-03-06T01:08:37.581Z,2.30
2019-03-06T01:11:08.926Z,2.70
2019-03-06T01:13:40.382Z,2.90
2019-03-06T01:16:11.660Z,2.87
2019-03-06T01:18:42.950Z,3.20
2019-03-06T01:21:14.515Z,3.00
2019-03-06T01:23:45.804Z,3.50
2019-03-06T01:26:17.055Z,3.20
2019-03-06T01:28:48.397Z,3.40
2019-03-06T01:31:19.682Z,3.60
2019-03-06T01:34:03.600Z,3.63
2019-03-06T01:36:52.462Z,3.47
2019-03-06T01:39:41.168Z,4.10
2019-03-06T01:42:21.735Z,3.60
2019-03-06T01:44:59.138Z,3.40
2019-03-06T01:47:32.498Z,4.40
2019-03-06T01:50:03.870Z,3.73
2019-03-06T01:52:35.200Z,4.33
2019-03-06T01:55:07.197Z,4.30
2019-03-06T01:57:38.477Z,4.60
2019-03-06T02:00:13.257Z,4.70
2019-03-06T02:02:44.524Z,4.80
2019-03-06T02:05:16.860Z,4.53
2019-03-06T02:07:48.198Z,5.50
2019-03-06T02:10:20.002Z,5.10
2019-03-06T02:12:51.315Z,5.20
2019-03-06T02:15:23.055Z,5.30
2019-03-06T02:17:54.332Z,5.70
2019-03-06T02:20:25.601Z,5.37
2019-03-06T02:22:56.892Z,5.87
2019-03-06T02:25:28.155Z,5.93
2019-03-06T02:27:59.459Z,6.10
2019-03-06T02:30:30.743Z,6.20
2019-03-06T02:33:02.035Z,6.33
2019-03-06T02:35:33.367Z,6.53
2019-03-06T02:38:04.624Z,6.60
2019-03-06T02:40:35.899Z,6.80
2019-03-06T02:43:07.204Z,6.53
2019-03-06T02:45:38.494Z,6.90
2019-03-06T02:48:10.052Z,7.00
2019-03-06T02:50:41.477Z,7.17
2019-03-06T02:53:12.730Z,7.20
2019-03-06T02:55:44.068Z,6.33
2019-03-06T02:58:22.677Z,7.23
2019-03-06T03:01:18.853Z,6.27
2019-03-06T03:04:06.373Z,7.23
2019-03-06T03:06:41.842Z,7.30
2019-03-06T03:09:19.210Z,7.17
2019-03-06T03:11:50.461Z,7.13
2019-03-06T03:14:21.728Z,7.40
2019-03-06T03:16:53.026Z,7.33
2019-03-06T03:19:24.327Z,7.37
2019-03-06T03:21:55.615Z,7.60
2019-03-06T03:24:26.917Z,7.60
2019-03-06T03:26:58.176Z,7.23
2019-03-06T03:29:29.432Z,7.73
2019-03-06T03:32:00.734Z,7.43
2019-03-06T03:34:32.055Z,7.73
2019-03-06T03:37:03.376Z,7.93
2019-03-06T03:39:34.611Z,7.30
2019-03-06T03:42:05.889Z,8.03
2019-03-06T03:44:37.171Z,8.03
2019-03-06T03:47:08.453Z,7.17
2019-03-06T03:49:39.713Z,7.67
2019-03-06T03:52:11.008Z,8.07
2019-03-06T03:54:42.355Z,7.50
2019-03-06T03:57:13.862Z,8.03
2019-03-06T03:59:45.147Z,8.10
2019-03-06T04:02:16.455Z,7.70
2019-03-06T04:04:47.951Z,7.50
2019-03-06T04:07:19.240Z,8.07
2019-03-06T04:09:50.528Z,7.83
2019-03-06T04:12:21.815Z,8.53
2019-03-06T04:14:53.144Z,7.97
2019-03-06T04:17:24.430Z,8.03
2019-03-06T04:19:55.978Z,7.60
2019-03-06T04:22:27.385Z,8.13
2019-03-06T04:24:58.689Z,8.60
2019-03-06T04:27:29.988Z,8.03
2019-03-06T04:30:01.267Z,7.47
2019-03-06T04:32:32.585Z,8.40
2019-03-06T04:35:03.870Z,7.70
2019-03-06T04:37:35.158Z,7.93
2019-03-06T04:40:06.876Z,7.83
2019-03-06T04:42:38.156Z,7.70
2019-03-06T04:45:09.953Z,8.30
2019-03-06T04:47:41.221Z,7.57
2019-03-06T04:50:12.510Z,7.53
2019-03-06T04:52:44.852Z,7.80
2019-03-06T04:55:16.519Z,8.00
2019-03-06T04:57:47.828Z,7.80
2019-03-06T05:00:19.140Z,7.87
2019-03-06T05:02:50.426Z,7.50
2019-03-06T05:05:21.761Z,7.80
2019-03-06T05:07:53.018Z,7.90
2019-03-06T05:10:24.377Z,7.33
2019-03-06T05:12:55.710Z,6.93
2019-03-06T05:15:27.015Z,6.97
2019-03-06T05:18:15.589Z,6.40
2019-03-06T05:20:46.865Z,6.47
2019-03-06T05:23:18.382Z,6.90
2019-03-06T05:25:49.664Z,6.80
2019-03-06T05:28:20.982Z,6.67
2019-03-06T05:30:52.383Z,7.10
2019-03-06T05:33:23.693Z,6.70
2019-03-06T05:36:51.964Z,6.63
2019-03-06T05:39:23.239Z,6.30
2019-03-06T05:41:54.533Z,5.80
2019-03-06T05:44:25.868Z,6.53
2019-03-06T05:46:57.342Z,5.77
2019-03-06T05:49:28.626Z,6.10
2019-03-06T05:51:59.918Z,6.23
2019-03-06T05:54:31.284Z,6.20
2019-03-06T05:57:02.819Z,5.73
2019-03-06T05:59:34.400Z,5.83
2019-03-06T06:02:05.700Z,5.13
2019-03-06T06:04:36.982Z,5.80
2019-03-06T06:07:08.271Z,5.87
2019-03-06T06:09:39.567Z,5.53
2019-03-06T06:12:10.808Z,5.53
2019-03-06T06:14:42.067Z,4.83
2019-03-06T06:17:13.328Z,5.37
2019-03-06T06:19:44.613Z,4.97
2019-03-06T06:22:31.187Z,4.80
2019-03-06T06:25:02.489Z,5.27
2019-03-06T06:27:34.019Z,5.47
2019-03-06T06:30:05.688Z,5.27
2019-03-06T06:32:37.282Z,4.53
2019-03-06T06:35:09.837Z,5.67
2019-03-06T06:37:41.278Z,5.47
2019-03-06T06:40:12.732Z,5.33
2019-03-06T06:42:44.038Z,5.80
2019-03-06T06:45:15.580Z,4.93
2019-03-06T06:48:25.130Z,5.50
2019-03-06T06:52:16.372Z,5.50
2019-03-06T06:55:35.786Z,5.53
2019-03-06T06:58:59.977Z,4.90
2019-03-06T07:02:59.519Z,5.43
2019-03-06T07:05:55.719Z,5.67
2019-03-06T07:08:50.229Z,5.47
2019-03-06T07:11:37.226Z,5.13
2019-03-06T07:14:27.431Z,5.87
2019-03-06T07:17:09.337Z,5.47
2019-03-06T07:19:49.756Z,4.73
2019-03-06T07:22:35.820Z,5.07
2019-03-06T07:25:25.689Z,5.20
2019-03-06T07:28:05.225Z,4.43
2019-03-06T07:31:01.383Z,4.20
2019-03-06T07:33:40.190Z,3.90
2019-03-06T07:36:30.503Z,4.17
2019-03-06T07:39:38.619Z,4.13
2019-03-06T07:42:40.361Z,4.50
2019-03-06T07:46:05.734Z,3.70
2019-03-06T07:49:00.421Z,3.53
2019-03-06T07:51:50.584Z,3.90
2019-03-06T07:54:35.210Z,3.10
2019-03-06T07:57:37.391Z,2.97
2019-03-06T08:00:20.454Z,3.20
2019-03-06T08:03:45.054Z,2.93
2019-03-06T08:06:16.368Z,2.67
2019-03-06T08:08:47.723Z,2.90
2019-03-06T08:11:28.678Z,2.30
2019-03-06T08:14:08.419Z,2.73
2019-03-06T08:16:51.143Z,2.73
2019-03-06T08:19:32.628Z,2.40
2019-03-06T08:22:11.584Z,2.10
2019-03-06T08:25:00.369Z,2.10
2019-03-06T08:27:31.626Z,2.43
2019-03-06T08:30:03.333Z,2.10
2019-03-06T08:32:35.717Z,2.10
2019-03-06T08:35:08.825Z,2.17
2019-03-06T08:37:40.169Z,2.13
2019-03-06T08:40:11.673Z,2.00
2019-03-06T08:42:42.925Z,1.57
2019-03-06T08:45:16.823Z,1.80
2019-03-06T08:48:05.603Z,1.90
2019-03-06T08:51:01.882Z,1.73
2019-03-06T08:53:58.171Z,1.60
2019-03-06T08:56:57.562Z,1.43
2019-03-06T08:59:59.777Z,1.80
2019-03-06T09:02:44.366Z,1.60
2019-03-06T09:05:32.775Z,1.80
2019-03-06T09:08:14.871Z,1.67
2019-03-06T09:11:03.061Z,1.50
2019-03-06T09:13:46.190Z,1.70
2019-03-06T09:16:45.517Z,1.30
2019-03-06T09:19:29.505Z,1.63
2019-03-06T09:22:16.270Z,1.27
2019-03-06T09:24:57.621Z,1.17
2019-03-06T09:27:47.002Z,1.43
2019-03-06T09:30:43.317Z,1.50
2019-03-06T09:33:31.957Z,1.30
2019-03-06T09:36:28.004Z,1.40
2019-03-06T09:39:06.639Z,1.30
2019-03-06T09:41:50.657Z,1.33
2019-03-06T09:44:40.832Z,1.67
2019-03-06T09:47:31.049Z,1.37
2019-03-06T09:50:11.849Z,1.60
2019-03-06T09:53:20.167Z,1.60
2019-03-06T09:56:19.541Z,1.40
2019-03-06T09:59:08.409Z,1.67
2019-03-06T10:02:06.534Z,1.47
2019-03-06T10:04:54.060Z,1.43
2019-03-06T10:07:41.598Z,1.33
2019-03-06T10:10:30.572Z,1.23
2019-03-06T10:13:09.864Z,1.30
2019-03-06T10:15:52.291Z,1.40
2019-03-06T10:18:48.539Z,1.43
2019-03-06T10:21:19.830Z,1.13
2019-03-06T10:23:51.088Z,1.40
2019-03-06T10:26:22.556Z,1.13
2019-03-06T10:28:53.825Z,1.43
2019-03-06T10:31:25.105Z,1.20
2019-03-06T10:33:56.345Z,1.40
2019-03-06T10:36:27.635Z,1.60
2019-03-06T10:38:58.935Z,1.40
2019-03-06T10:41:30.171Z,1.60
2019-03-06T10:44:01.522Z,1.50
2019-03-06T10:46:32.744Z,1.53
2019-03-06T10:49:04.122Z,1.50
2019-03-06T10:51:35.434Z,1.40
2019-03-06T10:54:07.230Z,1.17
2019-03-06T10:56:38.529Z,1.40
2019-03-06T10:59:09.908Z,1.20
2019-03-06T11:01:41.207Z,1.20
2019-03-06T11:04:25.374Z,1.60
2019-03-06T11:06:56.649Z,1.30
2019-03-06T11:09:28.397Z,1.30
2019-03-06T11:11:59.852Z,1.60
2019-03-06T11:14:31.328Z,1.30
2019-03-06T11:17:02.557Z,1.30
2019-03-06T11:19:34.129Z,1.30
2019-03-06T11:22:06.207Z,1.20
2019-03-06T11:24:37.457Z,1.20
2019-03-06T11:27:09.015Z,1.40
2019-03-06T11:29:40.424Z,1.30
2019-03-06T11:32:13.052Z,2.33
2019-03-06T11:34:44.409Z,1.17
2019-03-06T11:37:15.833Z,1.10
2019-03-06T11:39:47.119Z,1.33
2019-03-06T11:42:18.446Z,1.27
2019-03-06T11:44:49.782Z,1.20
2019-03-06T11:47:21.330Z,1.20
2019-03-06T11:49:52.595Z,1.10
2019-03-06T11:52:23.848Z,1.17
2019-03-06T11:54:55.089Z,1.03
2019-03-06T11:57:26.344Z,1.30
2019-03-06T11:59:57.586Z,1.00
2019-03-06T12:02:28.830Z,1.40
2019-03-06T12:05:00.265Z,1.10
2019-03-06T12:07:31.488Z,1.20
2019-03-06T12:10:02.813Z,1.03
2019-03-06T12:12:34.098Z,1.07
2019-03-06T12:15:05.578Z,1.40
2019-03-06T12:17:36.914Z,1.20
2019-03-06T12:20:08.665Z,1.30
2019-03-06T12:22:40.050Z,1.33
2019-03-06T12:25:12.069Z,1.10
2019-03-06T12:27:43.486Z,1.20
2019-03-06T12:30:15.837Z,1.10
2019-03-06T12:32:47.239Z,1.20
2019-03-06T12:35:18.655Z,1.20
2019-03-06T12:37:50.039Z,1.33
2019-03-06T12:40:22.518Z,1.20
2019-03-06T12:42:53.853Z,1.23
2019-03-06T12:45:27.151Z,0.93
2019-03-06T12:47:58.296Z,1.07
2019-03-06T12:50:30.558Z,1.13
2019-03-06T12:53:01.853Z,1.50
2019-03-06T12:55:33.259Z,0.90
2019-03-06T12:58:04.778Z,0.97
2019-03-06T13:00:36.363Z,1.00
2019-03-06T13:03:07.756Z,1.37
2019-03-06T13:05:39.029Z,1.10
2019-03-06T13:08:19.437Z,1.20
2019-03-06T13:10:43.248Z,1.13
2019-03-06T13:13:14.695Z,1.10
2019-03-06T13:15:47.142Z,1.40
2019-03-06T13:18:19.183Z,1.37
2019-03-06T13:20:50.672Z,1.47
2019-03-06T13:23:22.154Z,1.00
2019-03-06T13:25:53.740Z,1.10
2019-03-06T13:28:25.205Z,1.03
2019-03-06T13:30:56.658Z,1.00
2019-03-06T13:33:46.918Z,1.10
2019-03-06T13:36:18.403Z,1.33
2019-03-06T13:38:54.990Z,1.30
2019-03-06T13:41:22.710Z,0.97
2019-03-06T13:43:54.069Z,1.30
2019-03-06T13:46:25.535Z,0.90
2019-03-06T13:48:57.203Z,1.03
2019-03-06T13:51:28.693Z,1.17
2019-03-06T13:54:00.186Z,1.10
2019-03-06T13:56:31.441Z,0.87
2019-03-06T13:59:02.837Z,0.90
2019-03-06T14:01:34.251Z,1.30
2019-03-06T14:04:05.530Z,0.90
2019-03-06T14:06:36.774Z,1.37
2019-03-06T14:09:11.642Z,0.90
2019-03-06T14:11:45.797Z,1.03
2019-03-06T14:14:17.062Z,0.80
2019-03-06T14:16:48.373Z,1.00
2019-03-06T14:19:19.739Z,0.93
2019-03-06T14:21:51.107Z,1.00
2019-03-06T14:24:22.617Z,1.40
2019-03-06T14:26:53.917Z,1.10
2019-03-06T14:29:25.189Z,1.33
2019-03-06T14:31:56.482Z,1.10
2019-03-06T14:34:27.817Z,1.23
2019-03-06T14:36:59.270Z,1.20
2019-03-06T14:39:32.150Z,1.27
2019-03-06T14:42:03.461Z,1.37
2019-03-06T14:44:34.739Z,1.40
2019-03-06T14:47:06.265Z,1.30
2019-03-06T14:49:37.831Z,1.00
2019-03-06T14:52:09.131Z,1.00
2019-03-06T14:54:40.438Z,1.57
2019-03-06T14:57:11.710Z,1.20
2019-03-06T14:59:43.010Z,1.23
2019-03-06T15:02:14.468Z,1.40
2019-03-06T15:04:45.800Z,1.50
2019-03-06T15:07:17.147Z,1.43
2019-03-06T15:09:48.394Z,1.50
2019-03-06T15:12:19.811Z,1.53
2019-03-06T15:14:51.215Z,1.50
2019-03-06T15:17:22.512Z,1.40
2019-03-06T15:19:54.070Z,1.40
2019-03-06T15:22:25.341Z,1.40
2019-03-06T15:24:56.697Z,1.60
2019-03-06T15:27:28.168Z,1.40
2019-03-06T15:29:59.593Z,1.30
2019-03-06T15:32:31.263Z,1.30
2019-03-06T15:35:02.604Z,1.40
2019-03-06T15:37:33.930Z,1.20
2019-03-06T15:40:06.498Z,1.40
2019-03-06T15:42:37.758Z,1.30
2019-03-06T15:45:09.340Z,1.10
2019-03-06T15:47:40.644Z,1.50
2019-03-06T15:50:13.405Z,1.30
2019-03-06T15:52:44.881Z,1.70
2019-03-06T15:55:18.141Z,1.20
2019-03-06T15:57:49.661Z,1.27
2019-03-06T16:00:34.523Z,1.20
2019-03-06T16:03:07.616Z,1.50
2019-03-06T16:05:39.423Z,1.43
2019-03-06T16:08:11.342Z,1.50
2019-03-06T16:10:43.484Z,1.33
2019-03-06T16:13:15.330Z,1.63
2019-03-06T16:15:46.748Z,1.40
2019-03-06T16:18:17.995Z,1.73
2019-03-06T16:20:49.600Z,1.20
2019-03-06T16:23:20.900Z,1.50
2019-03-06T16:25:52.226Z,1.53
2019-03-06T16:28:23.521Z,1.60
2019-03-06T16:30:54.840Z,2.00
2019-03-06T16:33:26.205Z,1.43
2019-03-06T16:35:57.701Z,1.37
2019-03-06T16:38:29.043Z,1.50
2019-03-06T16:41:00.356Z,1.63
2019-03-06T16:43:31.660Z,1.50
2019-03-06T16:46:03.002Z,2.00
2019-03-06T16:48:34.463Z,1.67
2019-03-06T16:51:06.900Z,1.73
2019-03-06T16:53:38.257Z,1.70
2019-03-06T16:56:09.674Z,1.60
2019-03-06T16:58:41.025Z,1.57
2019-03-06T17:01:12.390Z,2.23
2019-03-06T17:03:43.718Z,1.70
2019-03-06T17:06:15.245Z,1.80
2019-03-06T17:08:46.527Z,1.60
2019-03-06T17:11:17.865Z,1.60
2019-03-06T17:13:49.212Z,1.73
2019-03-06T17:16:20.518Z,2.37
2019-03-06T17:18:51.849Z,1.70
2019-03-06T17:21:23.301Z,2.30
2019-03-06T17:23:54.609Z,1.50
2019-03-06T17:26:25.922Z,1.67
2019-03-06T17:28:58.569Z,1.77
2019-03-06T17:31:29.916Z,1.50
2019-03-06T17:34:01.227Z,1.67
2019-03-06T17:36:32.582Z,2.10
2019-03-06T17:39:05.065Z,1.57
2019-03-06T17:41:36.377Z,1.67
2019-03-06T17:44:07.659Z,1.67
2019-03-06T17:46:38.967Z,1.70
2019-03-06T17:49:10.531Z,1.83
2019-03-06T17:51:41.844Z,1.90
2019-03-06T17:54:13.204Z,2.00
2019-03-06T17:56:46.722Z,1.77
2019-03-06T17:59:17.669Z,1.97
2019-03-06T18:01:49.295Z,2.00
2019-03-06T18:04:21.927Z,2.13
2019-03-06T18:06:53.335Z,2.00
2019-03-06T18:09:24.687Z,2.27
2019-03-06T18:11:56.008Z,1.90
2019-03-06T18:14:27.326Z,2.03
2019-03-06T18:16:58.764Z,2.20
2019-03-06T18:19:30.086Z,2.10
2019-03-06T18:22:01.393Z,2.30
2019-03-06T18:24:32.807Z,2.23
2019-03-06T18:27:04.117Z,2.27
2019-03-06T18:29:35.487Z,2.20
2019-03-06T18:32:06.756Z,2.10
2019-03-06T18:34:38.065Z,2.23
2019-03-06T18:37:09.432Z,2.23
2019-03-06T18:39:40.964Z,2.30
2019-03-06T18:42:12.318Z,2.10
2019-03-06T18:44:45.391Z,2.20
2019-03-06T18:47:16.824Z,2.40
2019-03-06T18:49:48.141Z,2.43
2019-03-06T18:52:21.791Z,2.50
2019-03-06T18:54:53.118Z,2.30
2019-03-06T18:57:24.437Z,2.33
2019-03-06T18:59:55.728Z,2.53
2019-03-06T19:02:27.153Z,4.17
2019-03-06T19:04:58.494Z,2.70
2019-03-06T19:07:29.788Z,2.67
2019-03-06T19:10:01.087Z,2.50
2019-03-06T19:12:32.427Z,2.60
2019-03-06T19:15:04.007Z,2.43
2019-03-06T19:17:35.322Z,2.33
2019-03-06T19:20:07.332Z,2.47
2019-03-06T19:22:38.843Z,2.30
2019-03-06T19:25:11.962Z,2.30
2019-03-06T19:27:43.305Z,2.63
2019-03-06T19:30:22.064Z,3.20
2019-03-06T19:32:53.571Z,2.30
2019-03-06T19:35:27.923Z,2.43
2019-03-06T19:37:59.238Z,2.33
2019-03-06T19:40:30.741Z,2.60
2019-03-06T19:43:02.039Z,2.70
2019-03-06T19:45:33.363Z,2.57
2019-03-06T19:48:04.837Z,2.27
2019-03-06T19:50:36.150Z,2.47
2019-03-06T19:53:09.238Z,2.50
2019-03-06T19:55:40.589Z,2.47
2019-03-06T19:58:14.301Z,2.20
2019-03-06T20:00:46.027Z,2.70
2019-03-06T20:03:17.974Z,2.57
2019-03-06T20:05:49.464Z,9.07
2019-03-06T20:08:20.979Z,2.37
2019-03-06T20:10:52.276Z,2.30
2019-03-06T20:13:23.707Z,2.13
2019-03-06T20:15:55.182Z,2.03
2019-03-06T20:18:26.783Z,2.20
2019-03-06T20:20:58.156Z,2.33
2019-03-06T20:23:29.537Z,2.67
2019-03-06T20:26:01.016Z,2.70
2019-03-06T20:28:32.329Z,2.80
2019-03-06T20:31:03.914Z,2.40
2019-03-06T20:33:35.318Z,2.57
2019-03-06T20:36:06.667Z,2.97
2019-03-06T20:38:37.958Z,2.47
2019-03-06T20:41:09.321Z,2.50
2019-03-06T20:43:43.871Z,2.60
2019-03-06T20:46:15.249Z,2.90
2019-03-06T20:48:46.594Z,2.70
2019-03-06T20:51:17.876Z,2.20
2019-03-06T20:53:49.190Z,2.87
2019-03-06T20:56:20.491Z,2.60
2019-03-06T20:58:51.793Z,2.93
2019-03-06T21:01:23.317Z,2.97
2019-03-06T21:03:54.630Z,2.73
2019-03-06T21:06:33.209Z,2.60
2019-03-06T21:08:58.917Z,2.57
2019-03-06T21:11:30.250Z,2.80
2019-03-06T21:14:01.555Z,2.30
2019-03-06T21:16:33.014Z,2.90
2019-03-06T21:19:04.541Z,2.40
2019-03-06T21:21:36.143Z,3.10
2019-03-06T21:24:07.602Z,2.60
2019-03-06T21:26:38.995Z,2.57
2019-03-06T21:29:10.326Z,2.67
2019-03-06T21:31:41.616Z,2.50
2019-03-06T21:34:12.886Z,2.90
2019-03-06T21:36:45.122Z,2.47
2019-03-06T21:39:24.259Z,2.70
2019-03-06T21:41:55.597Z,2.90
2019-03-06T21:44:26.910Z,2.50
2019-03-06T21:46:58.210Z,2.70
2019-03-06T21:49:29.579Z,2.80
2019-03-06T21:52:00.959Z,2.70
2019-03-06T21:54:32.298Z,2.70
2019-03-06T21:57:03.642Z,2.70
2019-03-06T21:59:38.145Z,2.77
2019-03-06T22:02:09.466Z,2.40
2019-03-06T22:04:42.483Z,2.77
2019-03-06T22:07:13.774Z,2.93
2019-03-06T22:09:45.063Z,2.70
2019-03-06T22:12:16.359Z,2.50
2019-03-06T22:14:47.667Z,2.60
2019-03-06T22:17:19.252Z,2.73
2019-03-06T22:19:50.564Z,2.80
2019-03-06T22:22:22.013Z,2.83
2019-03-06T22:24:53.344Z,2.73
2019-03-06T22:27:24.630Z,3.23
2019-03-06T22:29:56.086Z,2.50
2019-03-06T22:32:27.415Z,2.70
2019-03-06T22:34:58.696Z,3.00
2019-03-06T22:37:30.008Z,2.83
2019-03-06T22:40:01.281Z,3.10
2019-03-06T22:42:32.564Z,3.00
2019-03-06T22:45:03.833Z,2.60
2019-03-06T22:47:35.111Z,2.90
2019-03-06T22:50:07.817Z,2.70
2019-03-06T22:52:39.084Z,2.37
2019-03-06T22:55:13.045Z,3.10
2019-03-06T22:57:44.340Z,2.60
2019-03-06T23:00:45.299Z,3.07
2019-03-06T23:03:17.373Z,2.67
2019-03-06T23:05:48.624Z,2.73
2019-03-06T23:08:19.919Z,2.80
2019-03-06T23:10:51.617Z,3.00
2019-03-06T23:13:22.895Z,3.13
2019-03-06T23:15:54.179Z,2.27
2019-03-06T23:18:25.482Z,2.70
2019-03-06T23:20:56.872Z,2.63
2019-03-06T23:23:28.115Z,2.70
2019-03-06T23:25:59.572Z,3.10
2019-03-06T23:28:30.851Z,2.93
2019-03-06T23:31:02.139Z,2.40
2019-03-06T23:33:33.454Z,2.70
2019-03-06T23:36:04.701Z,2.40
2019-03-06T23:38:36.263Z,2.70
2019-03-06T23:41:07.541Z,2.50
2019-03-06T23:43:38.782Z,2.57
2019-03-06T23:46:11.680Z,2.70
2019-03-06T23:48:43.097Z,2.77
2019-03-06T23:51:28.253Z,2.73
2019-03-06T23:53:59.572Z,2.43
2019-03-06T23:56:30.869Z,2.93
2019-03-06T23:59:02.263Z,2.93
